TNCMTKPK

Guest
Details From TNCM - St Maarten - Princess Juliana Intl
To TKPK - St. Kitts/Bradshaw Intl
Flight Number -
Tags decoded
Created
Modified
Stats Distance 49 nm / 91 km
Max Altitude 0 ft / 0 m
Waypoints 2
Social Downloads 0
Likes 0
Share VATSIM

Download

Looking for another format? Having issues loading an existing format? Contact us
Advertisement - Login to hide

Notes

Requested: TNCM TKPK

Route

TNCM TKPK

ID Type Via Altitude (ft/m) Position (lat/lon) Dist (leg/tot) Name
O TNCM APT - 0 / 0 18.04089 / -63.10897 - / 0 nm St Maarten - Princess Juliana Intl
O TKPK APT - 0 / 0 17.31119 / -62.71867 49 / 49 nm St. Kitts/Bradshaw Intl

Altitude Profile

Advertisement - Login to hide

TNCM

Details ICAO TNCM (SXM)
Name Princess Juliana Int'l
Region Caribbean Netherlands, Aruba, Curaçao, Sint Maarten
Timezone Unknown
Stats Elevation 12 ft / 4 m (AMSL)
Location 18.040900° -63.108900°
Runways 1
Magnetic Variation 14.355° W

METAR

TNCM 160000Z 07007KT 9999 FEW020 25/20 Q1018 A3007 NOSIG

Decode

TAF

TAF TNCM 152322Z 1600/1624 10010KT P6SM VCSH FEW020 FM161500 11010KT P6SM SCT040 FM162100 11009KT P6SM SCT030

Decode

Departure Runways

ID Width Length Bearing (true/mag) Surface Threshold Overrun Markings Lighting
10 148 ft / 45 m 7,553 ft / 2,302 m 81.44° / 95.79° ASPHALT 331 ft / 101 m 164 ft / 50 m PREC-APP EDGE THRESHOLD REIL-OMNI
28 148 ft / 45 m 7,553 ft / 2,302 m 261.45° / 275.80° ASPHALT 0 ft / 0 m 200 ft / 61 m APP EDGE THRESHOLD

TKPK

Details ICAO TKPK (SKB)
Name St. Kitts/Bradshaw Intl
Region Saint Kitts and Nevis
Timezone America/St_Kitts (UTC-4.0)
Stats Elevation 169 ft / 52 m (AMSL)
Location 17.311200° -62.718700°
Runways 1
Magnetic Variation 14.482° W

METAR

TKPK 160000Z 03005KT 9999 FEW018 BKN040 24/21 Q1018

Decode

TAF

TAF TKPK 152322Z 1600/1624 06010KT P6SM VCSH SCT020 SCT050 FM161200 08010KT P6SM FEW030 FM162100 07009KT P6SM FEW030 AMD NOT SKED 1602/1611

Decode

Destination Runways

ID Width Length Bearing (true/mag) Surface Threshold Overrun Markings Lighting
07 148 ft / 45 m 7,620 ft / 2,323 m 56.95° / 71.43° ASPHALT 200 ft / 61 m 0 ft / 0 m APP EDGE THRESHOLD
25 148 ft / 45 m 7,620 ft / 2,323 m 236.95° / 251.43° ASPHALT 0 ft / 0 m 0 ft / 0 m APP EDGE THRESHOLD REIL-OMNI

Popular Alternatives